LSGG Airport Information

Runway Information
Runway 05 Length 12795 ft width 164 ft
Elevation 1411 ft Threshold 1082 ft Heading 46
Runway 23 Length 12795 ft Width 164 ft
Elevation 1365 ft Threshold 0 ft Heading 226
Runway 05L Length 2700 ft width 98 ft
Elevation 1378 ft Threshold 613 ft Heading 46
Runway 23R Length 2700 ft Width 98 ft
Elevation 1393 ft Threshold 994 ft Heading 226
Airport Frequencies
Type APP Name APP Frequency 120.3 MHZ
Type ARR Name ARR Frequency 136.25 MHZ
Type ATIS Name ATIS Frequency 135.575 MHZ
Type DEP Name DEP Frequency 119.525 MHZ
Type GND Name GND Frequency 121.675 MHZ
Type GTE Name APN Frequency 121.75 MHZ
Type TWR Name TWR Frequency 118.7 MHZ
Airport Navaids
Type NDB Name Gland Frequency 375 KHZ
Type VOR-DME Name Geneva Cointrin Frequency 115750 KHZ
Type VOR-DME Name Passeiry Frequency 116600 KHZ
Airport Weather Information & NOTAM
ADDS - METARS form results

(1228 UTC 12 August 2020)
Data provider http://aviationweather.gov/metar/data/
 
METAR text: LSGG 121220Z 12003KT 060V190 9999 FEW055 30/16 Q1016 NOSIG
Conditions at: LSGG (GENEVA/COINTRIN , CH) observed 1220 UTC 12 August 2020
Temperature: 30.0°C (86°F)
Dewpoint: 16.0°C (61°F) [RH = 43%]
Pressure (altimeter): 30.00 inches Hg (1016.0 mb)
Winds: from the ESE (120 degrees) at 3 MPH (3 knots; 1.5 m/s)
Visibility: 6 or more miles (10+ km)
Ceiling: at least 12,000 feet AGL
Clouds: few clouds at 5500 feet AGL
Weather: no significant weather observed at this time

METAR text: LSGG 121150Z 11004KT 030V150 9999 FEW055 30/17 Q1016 NOSIG
Conditions at: LSGG (GENEVA/COINTRIN , CH) observed 1150 UTC 12 August 2020
Temperature: 30.0°C (86°F)
Dewpoint: 17.0°C (63°F) [RH = 46%]
Pressure (altimeter): 30.00 inches Hg (1016.0 mb)
Winds: from the ESE (110 degrees) at 5 MPH (4 knots; 2.1 m/s)
Visibility: 6 or more miles (10+ km)
Ceiling: at least 12,000 feet AGL
Clouds: few clouds at 5500 feet AGL
Weather: no significant weather observed at this time

Forecast for: LSGG (GENEVA/COINTRIN , CH)
Text: TAF LSGG 121125Z 1212/1318 05005KT 9999 FEW040TCU TX34/1215Z TN19/1305Z TX31/1315Z
Forecast period: 1200 UTC 12 August 2020 to 1800 UTC 13 August 2020
Forecast type: FROM: standard forecast or significant change
Winds: from the NE (50 degrees) at 6 MPH (5 knots; 2.6 m/s)
Visibility: 6 or more miles (10+ km)
Ceiling: at least 12,000 feet AGL
Clouds: few clouds at 4000 feet AGL
Weather: no significant weather forecast for this period
Text: PROB30
Forecast period: 1500 UTC 12 August 2020 to 1800 UTC 13 August 2020
Forecast type: TEMPORARY: The following changes expected for less than half the time period
Winds: variable direction winds at 14 MPH (12 knots; 6.2 m/s)
gusting to 25 MPH (22 knots; 11.3 m/s)
Visibility: missing
Ceiling: at least 12,000 feet AGL
Clouds: scattered clouds at 5000 feet AGL
Weather: TSRA  (rain associated with thunderstorm(s))